Time;durP1;ratioP1;P1;durP2;ratioP2;P2;SDS_P1;SDS_P2;PMS_P1;PMS_P2;Temp;Humidity;BMP_temperature;BMP_pressure;BME280_temperature;BME280_humidity;BME280_pressure;Samples;Min_cycle;Max_cycle;Signal;HPM_P1;HPM_P2
2023/01/11 00:01:59;;;;;;;3.00;2.20;;;6.00;99.90;;;;;;5027868;28;20208;-47
2023/01/11 00:04:28;;;;;;;3.50;2.07;;;6.00;99.90;;;;;;5022365;28;20207;-48
2023/01/11 00:06:56;;;;;;;2.97;2.40;;;6.00;99.90;;;;;;5028923;28;20558;-44
2023/01/11 00:09:46;;;;;;;2.57;1.57;;;6.10;99.90;;;;;;5040507;28;20280;-52
2023/01/11 00:12:14;;;;;;;5.87;2.70;;;6.10;99.90;;;;;;5020153;28;20568;-58
2023/01/11 00:14:40;;;;;;;5.87;2.30;;;6.20;99.90;;;;;;5019458;28;20203;-47
2023/01/11 00:17:07;;;;;;;3.77;1.70;;;6.30;99.90;;;;;;5025755;28;20220;-59
2023/01/11 00:19:34;;;;;;;7.23;2.80;;;6.30;99.90;;;;;;5025209;28;20296;-47
2023/01/11 00:22:01;;;;;;;5.00;2.10;;;6.30;99.90;;;;;;5025454;28;20200;-58
2023/01/11 00:24:28;;;;;;;5.47;2.00;;;6.30;99.90;;;;;;5020411;28;20204;-44
2023/01/11 00:26:56;;;;;;;5.63;2.10;;;6.40;99.90;;;;;;5025921;28;20226;-46
2023/01/11 00:29:23;;;;;;;3.20;1.90;;;6.40;99.90;;;;;;5009086;28;22601;-51
2023/01/11 00:31:52;;;;;;;5.10;1.90;;;6.50;99.90;;;;;;5042228;28;20210;-46
2023/01/11 00:34:19;;;;;;;3.87;2.03;;;6.50;99.90;;;;;;5021220;28;20208;-58
2023/01/11 00:36:46;;;;;;;4.83;2.17;;;6.50;99.90;;;;;;5029936;28;20584;-45
2023/01/11 00:39:13;;;;;;;3.27;1.97;;;6.50;99.90;;;;;;5021584;28;20223;-57
2023/01/11 00:49:58;;;;;;;5.60;2.03;;;6.60;99.90;;;;;;5025901;28;20692;-51
2023/01/11 00:52:24;;;;;;;3.10;1.80;;;6.70;99.90;;;;;;5018546;28;20282;-48
2023/01/11 00:54:51;;;;;;;7.53;2.13;;;6.70;99.90;;;;;;5032942;28;20633;-44
2023/01/11 00:57:18;;;;;;;6.87;2.10;;;6.70;99.90;;;;;;5019740;28;20220;-58
2023/01/11 00:59:47;;;;;;;3.33;1.90;;;6.80;99.90;;;;;;5029273;28;20211;-47
2023/01/11 01:02:13;;;;;;;4.00;1.53;;;6.70;99.90;;;;;;5016616;28;20728;-58
2023/01/11 01:04:41;;;;;;;4.00;2.20;;;6.70;99.90;;;;;;5030319;28;20210;-51
2023/01/11 01:07:08;;;;;;;6.27;2.20;;;6.70;99.90;;;;;;5026153;28;20220;-57
2023/01/11 01:09:35;;;;;;;6.30;2.30;;;6.60;99.90;;;;;;5021193;28;20196;-44
2023/01/11 01:12:03;;;;;;;2.73;1.90;;;6.60;99.90;;;;;;5024554;28;20204;-58
2023/01/11 01:14:29;;;;;;;5.33;2.07;;;6.60;99.90;;;;;;5029335;28;20198;-47
2023/01/11 01:17:00;;;;;;;6.80;2.50;;;6.60;99.90;;;;;;5028762;28;20203;-45
2023/01/11 01:19:27;;;;;;;6.87;2.30;;;6.50;99.90;;;;;;5009640;28;20230;-51
2023/01/11 01:21:55;;;;;;;7.53;2.10;;;6.50;99.90;;;;;;5037606;28;20199;-50
2023/01/11 01:24:22;;;;;;;3.10;2.03;;;6.50;99.90;;;;;;5023479;28;20209;-43
2023/01/11 01:26:49;;;;;;;3.53;2.27;;;6.50;99.90;;;;;;5027438;28;20207;-49
2023/01/11 01:29:16;;;;;;;5.70;2.20;;;6.50;99.90;;;;;;5021724;28;20601;-59
2023/01/11 01:31:43;;;;;;;4.20;1.93;;;6.50;99.90;;;;;;5027575;28;20224;-47
2023/01/11 01:34:12;;;;;;;6.00;2.40;;;6.50;99.90;;;;;;5026529;28;20626;-58
2023/01/11 01:36:39;;;;;;;6.50;2.40;;;6.50;99.90;;;;;;5024476;28;20227;-44
2023/01/11 01:39:07;;;;;;;4.73;2.10;;;6.50;99.90;;;;;;5032496;28;20226;-60
2023/01/11 01:41:34;;;;;;;3.17;2.50;;;6.60;99.90;;;;;;5025180;28;20287;-49
2023/01/11 01:44:03;;;;;;;6.27;2.30;;;6.60;99.90;;;;;;5024015;28;20204;-57
2023/01/11 01:46:31;;;;;;;4.10;2.30;;;6.60;99.90;;;;;;5029341;28;20473;-44
2023/01/11 01:49:01;;;;;;;3.93;2.47;;;6.60;99.90;;;;;;5020386;28;20230;-52
2023/01/11 01:51:34;;;;;;;4.07;2.07;;;6.60;99.90;;;;;;5025397;28;20196;-51
2023/01/11 01:54:06;;;;;;;3.43;1.90;;;6.60;99.90;;;;;;5023958;28;20219;-58
2023/01/11 01:56:37;;;;;;;6.10;2.10;;;6.60;99.90;;;;;;5024628;28;20204;-44
2023/01/11 01:59:11;;;;;;;7.83;2.67;;;6.60;99.90;;;;;;5023280;28;20227;-57
2023/01/11 02:01:47;;;;;;;6.90;2.40;;;6.70;99.90;;;;;;5034631;28;20215;-45
2023/01/11 02:04:22;;;;;;;6.93;2.00;;;6.70;99.90;;;;;;5017493;28;20216;-58
2023/01/11 02:06:52;;;;;;;5.97;2.03;;;6.70;99.90;;;;;;5028435;28;20286;-45
2023/01/11 02:09:25;;;;;;;3.23;2.20;;;6.70;99.90;;;;;;5023360;28;20207;-59
2023/01/11 02:11:53;;;;;;;5.70;2.37;;;6.70;99.90;;;;;;5022256;28;20210;-46
2023/01/11 02:14:21;;;;;;;4.80;2.07;;;6.80;99.90;;;;;;5016870;28;20239;-52
2023/01/11 02:16:48;;;;;;;2.47;2.07;;;6.70;99.90;;;;;;5023726;28;20208;-49
2023/01/11 02:19:26;;;;;;;8.50;3.00;;;6.80;99.90;;;;;;5018720;28;21166;-60
2023/01/11 02:22:14;;;;;;;4.33;1.90;;;6.80;99.90;;;;;;5029526;28;20271;-47
2023/01/11 02:25:01;;;;;;;2.03;1.53;;;6.80;99.90;;;;;;5029366;28;20216;-46
2023/01/11 02:27:43;;;;;;;4.03;1.70;;;6.80;99.90;;;;;;5025542;28;20211;-46
2023/01/11 02:30:20;;;;;;;3.93;1.67;;;6.80;99.90;;;;;;5025100;28;20212;-56
2023/01/11 02:32:57;;;;;;;2.93;1.80;;;6.90;99.90;;;;;;5029921;28;20203;-48
2023/01/11 02:35:35;;;;;;;8.00;2.13;;;6.90;99.90;;;;;;5012549;28;20283;-49
2023/01/11 02:38:09;;;;;;;2.50;1.50;;;6.90;99.90;;;;;;5035689;28;20219;-56
2023/01/11 02:40:47;;;;;;;4.03;1.63;;;6.90;99.90;;;;;;5019929;28;20200;-48
2023/01/11 02:46:11;;;;;;;1.50;1.40;;;7.00;99.90;;;;;;5024702;28;20717;-55
2023/01/11 02:48:46;;;;;;;3.73;1.40;;;7.10;99.90;;;;;;5022661;28;20208;-48
2023/01/11 02:51:17;;;;;;;2.97;1.50;;;7.10;99.90;;;;;;5024821;28;20215;-58
2023/01/11 02:53:47;;;;;;;4.33;2.10;;;7.10;99.90;;;;;;5032420;28;20200;-46
2023/01/11 02:56:18;;;;;;;1.83;1.33;;;7.10;99.90;;;;;;5038579;28;20234;-59
2023/01/11 02:58:48;;;;;;;1.67;1.07;;;7.10;99.90;;;;;;5030008;28;20219;-51
2023/01/11 03:01:16;;;;;;;2.57;1.27;;;7.20;99.90;;;;;;5025802;28;20200;-55
2023/01/11 03:03:43;;;;;;;2.47;1.37;;;7.20;99.90;;;;;;5032095;28;20284;-44
2023/01/11 03:06:15;;;;;;;1.63;1.10;;;7.20;99.90;;;;;;5023970;28;20212;-58
2023/01/11 03:08:56;;;;;;;1.50;1.23;;;7.30;99.90;;;;;;5025182;28;20215;-51
2023/01/11 03:14:33;;;;;;;2.77;1.40;;;7.30;99.90;;;;;;5031850;28;20220;-50
2023/01/11 03:17:10;;;;;;;1.70;1.60;;;7.40;99.90;;;;;;5032608;28;20229;-59
2023/01/11 03:19:43;;;;;;;1.57;1.47;;;7.40;99.90;;;;;;5031651;28;20208;-47
2023/01/11 03:22:19;;;;;;;1.90;1.50;;;7.50;99.90;;;;;;5021548;28;20207;-57
2023/01/11 03:24:51;;;;;;;1.40;1.30;;;7.50;99.90;;;;;;5028633;28;20214;-47
2023/01/11 03:27:26;;;;;;;1.20;1.10;;;7.60;99.90;;;;;;5034132;28;20326;-60
2023/01/11 03:30:05;;;;;;;1.30;1.20;;;7.60;99.90;;;;;;5028916;28;20214;-45
2023/01/11 03:32:39;;;;;;;2.23;1.40;;;7.70;99.90;;;;;;5029386;28;20262;-49
2023/01/11 03:35:14;;;;;;;1.40;1.30;;;7.80;99.90;;;;;;5026832;28;20214;-57
2023/01/11 03:37:47;;;;;;;0.90;0.90;;;7.80;99.90;;;;;;5016697;28;20231;-49
2023/01/11 03:40:17;;;;;;;2.87;1.40;;;7.80;99.90;;;;;;5027872;28;20219;-47
2023/01/11 03:45:37;;;;;;;0.90;0.90;;;7.90;99.90;;;;;;5039015;28;20202;-49
2023/01/11 03:48:08;;;;;;;0.87;0.87;;;7.90;99.90;;;;;;5023256;28;20963;-46
2023/01/11 03:50:35;;;;;;;1.63;0.93;;;7.90;99.90;;;;;;5029017;28;20690;-56
2023/01/11 03:53:05;;;;;;;1.90;1.07;;;8.00;99.90;;;;;;5011642;28;20227;-44
2023/01/11 03:55:37;;;;;;;1.07;0.90;;;8.00;99.90;;;;;;5032557;28;20207;-49
2023/01/11 03:58:05;;;;;;;2.30;1.20;;;8.00;99.90;;;;;;5023566;28;20227;-49
2023/01/11 04:00:35;;;;;;;2.10;1.20;;;8.00;99.90;;;;;;5018517;28;20203;-46
2023/01/11 04:03:02;;;;;;;1.83;1.20;;;8.00;99.90;;;;;;5029311;28;20204;-45
2023/01/11 04:05:29;;;;;;;1.07;1.00;;;8.00;99.90;;;;;;5023742;28;20197;-46
2023/01/11 04:07:56;;;;;;;1.83;1.30;;;8.00;99.90;;;;;;5029170;28;20224;-47
2023/01/11 04:10:23;;;;;;;2.47;1.80;;;8.10;99.90;;;;;;5019016;28;20580;-58
2023/01/11 04:12:50;;;;;;;1.03;0.93;;;8.00;99.90;;;;;;5028877;28;20211;-48
2023/01/11 04:15:17;;;;;;;2.17;1.40;;;8.00;99.90;;;;;;5024106;28;20200;-58
2023/01/11 04:17:45;;;;;;;2.37;1.27;;;8.00;99.90;;;;;;5023978;28;20229;-49
2023/01/11 04:20:12;;;;;;;2.97;1.23;;;8.00;99.90;;;;;;5031535;28;20717;-58
2023/01/11 04:22:39;;;;;;;2.97;1.30;;;8.10;99.90;;;;;;5019559;28;20199;-48
2023/01/11 04:25:08;;;;;;;8.53;2.93;;;8.10;99.90;;;;;;5022524;28;20277;-49
2023/01/11 04:27:35;;;;;;;1.57;0.87;;;8.10;99.90;;;;;;5022751;28;20222;-48
2023/01/11 04:30:03;;;;;;;1.83;1.67;;;8.10;99.90;;;;;;5035312;28;20211;-47
2023/01/11 04:32:30;;;;;;;4.50;2.30;;;8.10;99.90;;;;;;5023074;28;22937;-52
2023/01/11 04:34:58;;;;;;;2.30;1.37;;;8.10;99.90;;;;;;5025943;28;20191;-49
2023/01/11 04:37:25;;;;;;;4.23;1.83;;;8.10;99.90;;;;;;5017494;28;20207;-48
2023/01/11 04:39:52;;;;;;;3.33;1.80;;;8.10;99.90;;;;;;5016679;28;20223;-44
2023/01/11 04:42:18;;;;;;;6.40;1.93;;;8.10;99.90;;;;;;5021418;28;20307;-57
2023/01/11 04:44:46;;;;;;;2.07;1.50;;;8.10;99.90;;;;;;5025613;28;20200;-47
2023/01/11 04:47:14;;;;;;;2.90;1.27;;;8.10;99.90;;;;;;5022765;28;20231;-57
2023/01/11 04:49:41;;;;;;;7.40;2.27;;;8.10;99.90;;;;;;5023760;28;20204;-50
2023/01/11 04:52:10;;;;;;;9.80;2.60;;;8.10;99.90;;;;;;5022869;28;20214;-57
2023/01/11 04:54:37;;;;;;;2.50;1.17;;;8.10;99.90;;;;;;5027603;28;20257;-47
2023/01/11 04:57:04;;;;;;;7.43;2.60;;;8.10;99.90;;;;;;5015901;28;20742;-58
2023/01/11 04:59:31;;;;;;;2.83;1.13;;;8.10;99.90;;;;;;5027012;28;20218;-53
2023/01/11 05:01:58;;;;;;;2.73;1.10;;;8.20;99.90;;;;;;5033366;28;20204;-49
2023/01/11 05:04:25;;;;;;;2.33;1.00;;;8.20;99.90;;;;;;5028970;28;20862;-54
2023/01/11 05:06:51;;;;;;;5.40;1.33;;;8.20;99.90;;;;;;5037258;28;20200;-47
2023/01/11 05:09:20;;;;;;;2.57;1.10;;;8.20;99.90;;;;;;5032214;28;20199;-55
2023/01/11 05:11:47;;;;;;;4.80;1.77;;;8.30;99.90;;;;;;5021064;28;20211;-50
2023/01/11 05:14:14;;;;;;;4.63;1.70;;;8.30;99.90;;;;;;5030520;28;21247;-57
2023/01/11 05:16:42;;;;;;;4.07;1.57;;;8.30;99.90;;;;;;5033469;28;20203;-51
2023/01/11 05:19:10;;;;;;;4.53;1.97;;;8.30;99.90;;;;;;5033298;28;20349;-60
2023/01/11 05:21:39;;;;;;;1.30;0.80;;;8.30;99.90;;;;;;5038346;28;20238;-44
2023/01/11 05:24:09;;;;;;;3.80;1.57;;;8.30;99.90;;;;;;5032829;28;20204;-59
2023/01/11 05:26:38;;;;;;;11.87;4.50;;;8.30;99.90;;;;;;5017481;28;21441;-46
2023/01/11 05:29:07;;;;;;;1.40;1.20;;;8.30;99.90;;;;;;5032307;28;20214;-58
2023/01/11 05:31:36;;;;;;;7.87;3.17;;;8.30;99.90;;;;;;5031549;28;20218;-49
2023/01/11 05:34:05;;;;;;;7.93;2.67;;;8.40;99.90;;;;;;5035126;28;20196;-57
2023/01/11 05:36:33;;;;;;;3.27;1.27;;;8.40;99.90;;;;;;5024542;28;20848;-46
2023/01/11 05:39:00;;;;;;;4.23;1.20;;;8.40;99.90;;;;;;5028039;28;20266;-57
2023/01/11 05:41:28;;;;;;;4.60;1.90;;;8.40;99.90;;;;;;5013500;28;20318;-47
2023/01/11 05:46:43;;;;;;;3.80;1.13;;;8.40;99.90;;;;;;5033605;28;20218;-47
2023/01/11 05:49:10;;;;;;;1.80;1.00;;;8.50;99.90;;;;;;5036780;28;20208;-53
2023/01/11 05:51:38;;;;;;;9.90;4.13;;;8.50;99.90;;;;;;5028733;28;20283;-45
2023/01/11 05:54:07;;;;;;;9.67;2.87;;;8.50;99.90;;;;;;5031113;28;20257;-58
2023/01/11 05:56:34;;;;;;;8.90;2.20;;;8.50;99.90;;;;;;5033822;28;20211;-45
2023/01/11 05:59:03;;;;;;;3.00;2.00;;;8.60;99.90;;;;;;5017361;28;20237;-60
2023/01/11 06:01:30;;;;;;;1.37;0.90;;;8.60;99.90;;;;;;5036750;28;20198;-50
2023/01/11 06:03:58;;;;;;;10.80;3.30;;;8.60;99.90;;;;;;5031836;28;20208;-57
2023/01/11 06:06:24;;;;;;;1.67;1.47;;;8.60;99.90;;;;;;5031790;28;20200;-46
2023/01/11 06:08:51;;;;;;;9.33;3.53;;;8.60;99.90;;;;;;5029870;28;20250;-57
2023/01/11 06:11:18;;;;;;;4.33;2.60;;;8.60;99.90;;;;;;5029036;28;20211;-44
2023/01/11 06:13:45;;;;;;;8.53;4.10;;;8.70;99.90;;;;;;5023194;28;20235;-50
2023/01/11 06:16:15;;;;;;;3.83;1.13;;;8.70;99.90;;;;;;5022584;28;20207;-51
2023/01/11 06:18:43;;;;;;;8.20;1.93;;;8.70;99.90;;;;;;5037710;28;20211;-45
2023/01/11 06:21:11;;;;;;;7.10;1.63;;;8.70;99.90;;;;;;5026069;28;20227;-54
2023/01/11 06:23:40;;;;;;;9.17;2.00;;;8.70;99.90;;;;;;5019544;28;20192;-45
2023/01/11 06:26:10;;;;;;;3.97;2.03;;;8.70;99.90;;;;;;5030751;28;20844;-50
2023/01/11 06:28:37;;;;;;;7.03;3.40;;;8.80;99.90;;;;;;5005864;28;20208;-45
2023/01/11 06:31:05;;;;;;;3.97;1.80;;;8.80;99.90;;;;;;5034962;28;20198;-49
2023/01/11 06:33:33;;;;;;;2.67;1.87;;;8.80;99.90;;;;;;5029140;28;20266;-47
2023/01/11 06:36:05;;;;;;;1.97;1.30;;;8.80;99.90;;;;;;5036501;28;20214;-45
2023/01/11 06:38:35;;;;;;;2.77;1.73;;;8.80;99.90;;;;;;5014407;28;21004;-43
2023/01/11 06:41:04;;;;;;;10.23;3.17;;;8.80;99.90;;;;;;5032976;28;20318;-47
2023/01/11 06:43:32;;;;;;;1.83;1.30;;;8.80;99.90;;;;;;5016190;28;21015;-47
2023/01/11 06:45:58;;;;;;;4.97;2.20;;;8.90;99.90;;;;;;5032519;28;20200;-48
2023/01/11 06:48:26;;;;;;;1.80;1.23;;;8.90;99.90;;;;;;5037410;28;20211;-57
2023/01/11 06:50:56;;;;;;;11.10;3.27;;;8.90;99.90;;;;;;5037517;28;20206;-43
2023/01/11 06:53:24;;;;;;;14.83;4.10;;;8.90;99.90;;;;;;5026500;28;20258;-59
2023/01/11 06:55:51;;;;;;;3.17;1.90;;;8.90;99.90;;;;;;5033285;28;20195;-45
2023/01/11 06:58:18;;;;;;;9.57;2.97;;;8.90;99.90;;;;;;5030449;28;20601;-59
2023/01/11 07:00:45;;;;;;;13.37;5.60;;;8.90;99.90;;;;;;5014335;28;20785;-46
2023/01/11 07:03:12;;;;;;;8.30;3.83;;;9.00;99.90;;;;;;5025489;28;20943;-48
2023/01/11 07:05:41;;;;;;;11.03;5.07;;;9.00;99.90;;;;;;5026995;28;20203;-43
2023/01/11 07:08:09;;;;;;;2.20;1.83;;;9.00;99.90;;;;;;5016733;28;20245;-50
2023/01/11 07:10:36;;;;;;;7.97;3.70;;;9.00;99.90;;;;;;5026206;28;20626;-46
2023/01/11 07:13:04;;;;;;;3.37;2.77;;;9.00;99.90;;;;;;5027963;28;20227;-50
2023/01/11 07:15:31;;;;;;;2.43;2.20;;;9.00;99.90;;;;;;5019717;28;20583;-44
2023/01/11 07:18:00;;;;;;;12.10;3.87;;;9.10;99.90;;;;;;5017358;28;20226;-56
2023/01/11 07:20:28;;;;;;;12.60;3.93;;;9.10;99.90;;;;;;5023422;28;20223;-48
2023/01/11 07:22:57;;;;;;;7.23;3.87;;;9.10;99.90;;;;;;5020154;28;20200;-56
2023/01/11 07:25:26;;;;;;;2.87;2.53;;;9.10;99.90;;;;;;5020426;28;20265;-44
2023/01/11 07:27:57;;;;;;;5.80;3.47;;;9.10;99.90;;;;;;5032753;28;20220;-58
2023/01/11 07:30:24;;;;;;;5.97;3.37;;;9.10;99.90;;;;;;5021005;28;20283;-45
2023/01/11 07:32:51;;;;;;;4.00;3.60;;;9.10;99.90;;;;;;5021976;28;20207;-58
2023/01/11 07:35:18;;;;;;;10.17;4.50;;;9.20;99.90;;;;;;5035131;28;20223;-44
2023/01/11 07:37:45;;;;;;;6.83;4.13;;;9.20;99.90;;;;;;5027356;28;20224;-56
2023/01/11 07:40:15;;;;;;;5.07;3.27;;;9.20;99.90;;;;;;5025803;28;20204;-42
2023/01/11 07:45:33;;;;;;;8.77;5.07;;;9.20;99.90;;;;;;5039657;28;20257;-45
2023/01/11 07:48:25;;;;;;;15.90;5.23;;;9.20;99.90;;;;;;5018971;28;20226;-46
2023/01/11 07:50:52;;;;;;;13.17;6.50;;;9.20;99.90;;;;;;5035081;28;20283;-60
2023/01/11 07:53:19;;;;;;;15.73;6.53;;;9.30;99.90;;;;;;5036747;28;22666;-43
2023/01/11 07:55:46;;;;;;;12.40;5.27;;;9.30;99.90;;;;;;5035789;28;20211;-56
2023/01/11 07:58:15;;;;;;;16.37;5.90;;;9.30;99.90;;;;;;5023976;28;20231;-50
2023/01/11 08:00:42;;;;;;;19.80;6.50;;;9.30;99.90;;;;;;5044950;28;20235;-57
2023/01/11 08:03:09;;;;;;;8.23;5.40;;;9.30;99.90;;;;;;5015802;28;20212;-47
2023/01/11 08:05:36;;;;;;;18.20;9.73;;;9.30;99.90;;;;;;5034182;28;20250;-49
2023/01/11 08:08:04;;;;;;;11.60;6.73;;;9.40;99.90;;;;;;5032149;28;20754;-45
2023/01/11 08:10:30;;;;;;;4.23;3.90;;;9.40;99.90;;;;;;5028269;28;20245;-51
2023/01/11 08:15:43;;;;;;;5.87;3.50;;;9.40;99.90;;;;;;5040096;28;20226;-55
2023/01/11 08:18:11;;;;;;;3.70;3.17;;;9.30;99.90;;;;;;5015259;28;20302;-43
2023/01/11 08:20:38;;;;;;;12.07;6.27;;;9.40;99.90;;;;;;5035159;28;20929;-44
2023/01/11 08:23:06;;;;;;;12.47;6.23;;;9.40;99.90;;;;;;5024936;28;20192;-50
2023/01/11 08:25:33;;;;;;;14.17;6.57;;;9.40;99.90;;;;;;5027227;28;20215;-48
2023/01/11 08:28:01;;;;;;;8.63;4.60;;;9.40;99.90;;;;;;5020686;28;20220;-46
2023/01/11 08:30:28;;;;;;;3.70;2.77;;;9.50;99.90;;;;;;5033132;28;20670;-45
2023/01/11 08:32:56;;;;;;;6.77;4.50;;;9.40;99.90;;;;;;5022056;28;20207;-56
2023/01/11 08:35:23;;;;;;;4.33;2.83;;;9.40;99.90;;;;;;5027457;28;20203;-52
2023/01/11 08:37:50;;;;;;;4.30;3.10;;;9.40;99.90;;;;;;5037601;28;20245;-57
2023/01/11 08:40:17;;;;;;;3.67;2.90;;;9.50;99.90;;;;;;5028701;28;20219;-45
2023/01/11 08:42:44;;;;;;;11.57;3.90;;;9.50;99.90;;;;;;5027257;28;20195;-57
2023/01/11 08:45:11;;;;;;;7.60;3.37;;;9.40;99.90;;;;;;5028086;28;20888;-48
2023/01/11 08:47:37;;;;;;;5.07;3.30;;;9.40;99.90;;;;;;5039841;28;20211;-46
2023/01/11 08:50:08;;;;;;;5.00;2.10;;;9.50;99.90;;;;;;5017176;28;20195;-44
2023/01/11 08:52:35;;;;;;;2.60;1.53;;;9.50;99.90;;;;;;5039004;28;20203;-50
2023/01/11 08:55:02;;;;;;;10.13;3.00;;;9.50;99.90;;;;;;5028510;28;20273;-46
2023/01/11 08:57:29;;;;;;;2.13;1.60;;;9.50;99.90;;;;;;5030406;28;20219;-44
2023/01/11 08:59:56;;;;;;;3.90;1.90;;;9.50;99.90;;;;;;5022117;28;20223;-56
2023/01/11 09:02:23;;;;;;;2.77;1.70;;;9.50;99.90;;;;;;5030392;28;20199;-44
2023/01/11 09:04:49;;;;;;;2.77;1.93;;;9.50;99.90;;;;;;5018501;28;20214;-58
2023/01/11 09:07:17;;;;;;;3.67;1.93;;;9.50;99.90;;;;;;5025923;28;20224;-50
2023/01/11 09:09:44;;;;;;;3.57;1.63;;;9.50;99.90;;;;;;5033202;28;20195;-58
2023/01/11 09:12:11;;;;;;;2.37;1.40;;;9.50;99.90;;;;;;5035055;28;20286;-48
2023/01/11 09:14:37;;;;;;;6.73;2.43;;;9.50;99.90;;;;;;5031897;28;20212;-47
2023/01/11 09:17:04;;;;;;;13.70;4.03;;;9.60;99.90;;;;;;5037148;28;20881;-53
2023/01/11 09:19:32;;;;;;;14.53;5.37;;;9.50;99.90;;;;;;5015874;28;20214;-58
2023/01/11 09:22:00;;;;;;;18.90;5.27;;;9.60;99.90;;;;;;5030548;28;20877;-47
2023/01/11 09:24:28;;;;;;;14.40;4.20;;;9.60;99.90;;;;;;5025373;28;20198;-58
2023/01/11 09:26:57;;;;;;;6.37;3.10;;;9.60;99.90;;;;;;5031745;28;20213;-46
2023/01/11 09:29:25;;;;;;;8.27;3.57;;;9.60;99.90;;;;;;5026607;28;20258;-55
2023/01/11 09:31:52;;;;;;;9.93;2.90;;;9.60;99.90;;;;;;5035476;28;20203;-50
2023/01/11 09:34:19;;;;;;;7.73;3.87;;;9.60;99.90;;;;;;5028393;28;20720;-57
2023/01/11 09:36:47;;;;;;;14.80;4.30;;;9.60;99.90;;;;;;5015561;28;20211;-43
2023/01/11 09:39:17;;;;;;;5.93;3.20;;;9.60;99.90;;;;;;5030697;28;20200;-45
2023/01/11 09:42:16;;;;;;;8.77;4.90;;;9.60;99.90;;;;;;5022228;28;20223;-49
2023/01/11 09:44:50;;;;;;;14.13;3.93;;;9.70;99.90;;;;;;5024202;28;20199;-50
2023/01/11 09:47:25;;;;;;;13.47;5.10;;;9.70;99.90;;;;;;5035398;28;20222;-56
2023/01/11 09:49:56;;;;;;;6.07;3.00;;;9.60;99.90;;;;;;5029085;28;20229;-44
2023/01/11 09:52:29;;;;;;;3.90;2.50;;;9.70;99.90;;;;;;5015398;28;20557;-57
2023/01/11 09:54:58;;;;;;;9.70;3.10;;;9.70;99.90;;;;;;5037597;28;20233;-46
2023/01/11 09:57:39;;;;;;;6.83;2.83;;;9.70;99.90;;;;;;5025216;28;20228;-59
2023/01/11 10:00:16;;;;;;;8.13;4.17;;;9.70;99.90;;;;;;5032634;28;20509;-47
2023/01/11 10:02:59;;;;;;;7.77;4.33;;;9.70;99.90;;;;;;5032302;28;20183;-50
2023/01/11 10:05:50;;;;;;;3.60;3.20;;;9.70;99.90;;;;;;5020769;28;20542;-59
2023/01/11 10:08:38;;;;;;;7.43;3.33;;;9.70;99.90;;;;;;5026328;28;20220;-53
2023/01/11 10:11:19;;;;;;;8.63;3.67;;;9.80;99.90;;;;;;5033788;28;20291;-45
2023/01/11 10:13:58;;;;;;;2.50;2.30;;;9.70;99.90;;;;;;5020924;28;20313;-49
2023/01/11 10:16:37;;;;;;;5.87;2.93;;;9.70;99.90;;;;;;5026953;28;20670;-56
2023/01/11 10:19:12;;;;;;;7.87;3.87;;;9.70;99.90;;;;;;5031085;28;20219;-47
2023/01/11 10:21:44;;;;;;;14.27;4.47;;;9.80;99.90;;;;;;5016509;28;20207;-50
2023/01/11 10:24:19;;;;;;;7.47;3.80;;;9.70;99.90;;;;;;5029002;28;20206;-44
2023/01/11 10:26:49;;;;;;;9.17;4.03;;;9.80;99.90;;;;;;5022059;28;20215;-49
2023/01/11 10:29:38;;;;;;;12.03;3.83;;;9.80;99.90;;;;;;5029012;28;20221;-50
2023/01/11 10:32:33;;;;;;;3.77;2.23;;;9.80;99.90;;;;;;5032506;28;20200;-45
2023/01/11 10:35:23;;;;;;;13.00;4.17;;;9.80;99.90;;;;;;5039471;28;20207;-45
2023/01/11 10:38:06;;;;;;;13.30;5.40;;;9.80;99.90;;;;;;5031065;28;20246;-48
2023/01/11 10:41:01;;;;;;;6.40;3.80;;;9.90;99.90;;;;;;5025381;28;20227;-59
2023/01/11 10:43:28;;;;;;;12.87;4.67;;;9.90;99.90;;;;;;5034229;28;20226;-57
2023/01/11 10:46:00;;;;;;;4.10;2.33;;;9.80;99.90;;;;;;5024850;28;20226;-45
2023/01/11 10:48:32;;;;;;;6.13;2.60;;;9.80;99.90;;;;;;5034863;28;20294;-56
2023/01/11 10:51:03;;;;;;;5.70;2.80;;;9.90;99.90;;;;;;5026278;28;20226;-51
2023/01/11 10:53:36;;;;;;;6.43;2.60;;;9.80;99.90;;;;;;5019089;28;20216;-59
2023/01/11 10:56:12;;;;;;;7.40;3.07;;;9.80;99.90;;;;;;5030370;28;20206;-49
2023/01/11 10:59:06;;;;;;;3.60;2.30;;;9.80;99.90;;;;;;5019966;28;20333;-44
2023/01/11 11:01:49;;;;;;;13.67;3.57;;;9.80;99.90;;;;;;5030174;28;20820;-56
2023/01/11 11:04:31;;;;;;;11.90;3.80;;;9.90;99.90;;;;;;5042710;28;20199;-43
2023/01/11 11:07:05;;;;;;;10.70;3.47;;;9.90;99.90;;;;;;5034800;28;20294;-45
2023/01/11 11:09:39;;;;;;;12.57;4.53;;;9.90;99.90;;;;;;5016219;28;20677;-58
2023/01/11 11:12:11;;;;;;;13.67;4.33;;;9.90;99.90;;;;;;5021419;28;20207;-57
2023/01/11 11:14:46;;;;;;;7.90;4.03;;;9.90;99.90;;;;;;5030328;28;20203;-43
2023/01/11 11:17:21;;;;;;;5.43;2.23;;;9.90;99.90;;;;;;5017545;28;20667;-58
2023/01/11 11:19:48;;;;;;;5.00;1.97;;;9.90;99.90;;;;;;5032513;28;20604;-45
2023/01/11 11:22:15;;;;;;;6.97;2.30;;;9.90;99.90;;;;;;5021924;28;20636;-56
2023/01/11 11:24:47;;;;;;;4.37;2.23;;;9.90;99.90;;;;;;5027540;28;20210;-53
2023/01/11 11:27:21;;;;;;;8.40;3.93;;;9.90;99.90;;;;;;5023098;28;20737;-58
2023/01/11 11:29:52;;;;;;;7.57;2.60;;;9.90;99.90;;;;;;5035369;28;20234;-49
2023/01/11 11:32:25;;;;;;;10.10;3.97;;;9.90;99.90;;;;;;5026671;28;20206;-43
2023/01/11 11:34:52;;;;;;;5.30;2.50;;;9.90;99.90;;;;;;5038487;28;20673;-45
2023/01/11 11:37:25;;;;;;;10.70;3.23;;;9.90;99.90;;;;;;5021534;28;20363;-46
2023/01/11 11:39:53;;;;;;;3.70;1.50;;;9.90;99.90;;;;;;5023626;28;20216;-51
2023/01/11 11:42:21;;;;;;;2.57;1.40;;;9.90;99.90;;;;;;5030370;28;20228;-43
2023/01/11 11:45:17;;;;;;;8.13;2.50;;;9.90;99.90;;;;;;5028967;28;20200;-45
2023/01/11 11:48:01;;;;;;;5.27;1.77;;;9.90;99.90;;;;;;5019702;28;20698;-56
2023/01/11 11:50:29;;;;;;;5.70;1.70;;;9.90;99.90;;;;;;5030105;28;20608;-54
2023/01/11 11:53:02;;;;;;;8.87;3.27;;;9.90;99.90;;;;;;5019757;28;20200;-46
2023/01/11 11:55:32;;;;;;;7.67;1.83;;;9.90;99.90;;;;;;5019928;28;20207;-56
2023/01/11 11:58:04;;;;;;;5.10;2.00;;;9.90;99.90;;;;;;5032261;28;20488;-46
2023/01/11 12:00:38;;;;;;;7.80;1.93;;;9.90;99.90;;;;;;5028365;28;20200;-58
2023/01/11 12:03:14;;;;;;;5.33;2.53;;;9.90;99.90;;;;;;5029832;28;20875;-47
2023/01/11 12:05:53;;;;;;;10.40;2.67;;;9.90;99.90;;;;;;5030794;28;20621;-57
2023/01/11 12:08:21;;;;;;;3.07;1.60;;;9.90;99.90;;;;;;5031048;28;20226;-48
2023/01/11 12:10:51;;;;;;;6.17;1.47;;;9.90;99.90;;;;;;5014825;28;20199;-42
2023/01/11 12:13:31;;;;;;;6.60;1.67;;;9.80;99.90;;;;;;5032663;28;20218;-45
2023/01/11 12:15:59;;;;;;;5.20;2.40;;;9.90;99.90;;;;;;5030495;28;20229;-45
2023/01/11 12:18:32;;;;;;;5.63;2.10;;;9.80;99.90;;;;;;5032607;28;20230;-44
2023/01/11 12:21:09;;;;;;;6.73;2.27;;;9.90;99.90;;;;;;5028518;28;20273;-45
2023/01/11 12:23:36;;;;;;;7.17;2.00;;;9.80;99.90;;;;;;5025906;28;20673;-56
2023/01/11 12:26:21;;;;;;;10.23;2.27;;;9.80;99.90;;;;;;5016811;28;20223;-47
2023/01/11 12:29:03;;;;;;;5.07;1.70;;;9.80;99.90;;;;;;5024430;28;20210;-49
2023/01/11 12:31:37;;;;;;;3.07;1.60;;;9.80;99.90;;;;;;5026603;28;20200;-57
2023/01/11 12:34:16;;;;;;;6.57;1.77;;;9.80;99.90;;;;;;5029968;28;20226;-48
2023/01/11 12:36:54;;;;;;;3.67;1.70;;;9.80;99.90;;;;;;5032173;28;20196;-59
2023/01/11 12:39:28;;;;;;;7.47;1.90;;;9.80;99.90;;;;;;5027558;28;20239;-44
2023/01/11 12:42:12;;;;;;;7.57;1.70;;;9.80;99.90;;;;;;5013719;28;20234;-44
2023/01/11 12:44:53;;;;;;;3.97;1.70;;;9.80;99.90;;;;;;5028892;28;20238;-57
2023/01/11 12:47:44;;;;;;;7.43;2.30;;;9.80;99.90;;;;;;5028147;28;20701;-48
2023/01/11 12:50:20;;;;;;;7.93;2.73;;;9.80;99.90;;;;;;5036041;28;20219;-46
2023/01/11 12:53:00;;;;;;;5.23;1.43;;;9.80;99.90;;;;;;5023749;28;20992;-51
2023/01/11 12:55:41;;;;;;;7.47;2.40;;;9.80;99.90;;;;;;5029016;28;20651;-57
2023/01/11 12:58:15;;;;;;;8.13;1.90;;;9.80;99.90;;;;;;5016033;28;20720;-50
2023/01/11 13:01:12;;;;;;;7.90;2.50;;;9.80;99.90;;;;;;5036520;28;20738;-57
2023/01/11 13:04:15;;;;;;;6.53;2.00;;;9.80;99.90;;;;;;5027415;28;20587;-46
2023/01/11 13:06:52;;;;;;;6.37;2.60;;;9.80;99.90;;;;;;5024723;28;20211;-50
2023/01/11 13:09:28;;;;;;;9.37;2.57;;;9.80;99.90;;;;;;5027279;28;20606;-59
2023/01/11 13:12:03;;;;;;;5.67;1.80;;;9.80;99.90;;;;;;5031466;28;20788;-49
2023/01/11 13:14:50;;;;;;;6.37;1.90;;;9.80;99.90;;;;;;5018332;28;20207;-44
2023/01/11 13:17:24;;;;;;;5.03;2.20;;;9.70;99.90;;;;;;5023504;28;20254;-56
2023/01/11 13:20:03;;;;;;;9.57;2.40;;;9.80;99.90;;;;;;5015739;28;21088;-44
2023/01/11 13:22:36;;;;;;;7.30;2.13;;;9.80;99.90;;;;;;5026629;28;20220;-59
2023/01/11 13:25:12;;;;;;;7.20;2.30;;;9.80;99.90;;;;;;5026715;28;20277;-46
2023/01/11 13:27:40;;;;;;;8.73;2.43;;;9.80;99.90;;;;;;5021903;28;20576;-59
2023/01/11 13:30:12;;;;;;;9.03;2.47;;;9.80;99.90;;;;;;5020710;28;20226;-49
2023/01/11 13:32:42;;;;;;;5.67;1.70;;;9.90;99.90;;;;;;5019806;28;20568;-57
2023/01/11 13:35:15;;;;;;;6.57;2.97;;;9.90;99.90;;;;;;5039968;28;20233;-43
2023/01/11 13:37:50;;;;;;;7.53;2.47;;;10.00;99.90;;;;;;5027369;28;20215;-58
2023/01/11 13:40:20;;;;;;;8.27;2.37;;;10.00;99.90;;;;;;5023202;28;20200;-42
2023/01/11 13:42:53;;;;;;;5.83;2.00;;;10.00;99.90;;;;;;5023206;28;20297;-52